Time;durP1;ratioP1;P1;durP2;ratioP2;P2;SDS_P1;SDS_P2;PMS_P1;PMS_P2;Temp;Humidity;BMP_temperature;BMP_pressure;BME280_temperature;BME280_humidity;BME280_pressure;Samples;Min_cycle;Max_cycle;Signal;HPM_P1;HPM_P2
2022/08/04 00:00:05;;;;;;;7.30;3.10;;;;;;;24.34;100.00;101230.91;2057834;28;20187;-64
2022/08/04 00:01:10;;;;;;;8.43;3.27;;;;;;;24.33;100.00;101235.03;2061122;28;20627;-64
2022/08/04 00:02:49;;;;;;;7.33;2.97;;;;;;;24.33;100.00;101237.84;2055609;28;20187;-65
2022/08/04 00:04:11;;;;;;;6.30;3.03;;;;;;;23.88;100.00;101173.09;2045524;28;20234;-63
2022/08/04 00:05:34;;;;;;;5.50;2.83;;;;;;;24.28;100.00;101241.44;2056249;28;20167;-64
2022/08/04 00:06:46;;;;;;;5.40;2.90;;;;;;;23.70;100.00;101162.25;2056506;28;20159;-64
2022/08/04 00:07:55;;;;;;;6.03;3.03;;;;;;;24.15;100.00;101235.47;2056826;28;20163;-64
2022/08/04 00:09:00;;;;;;;2.97;2.50;;;;;;;24.15;100.00;101234.72;2056525;28;20551;-65
2022/08/04 00:10:04;;;;;;;4.93;2.53;;;;;;;24.12;100.00;101230.06;2056549;28;20163;-65
2022/08/04 00:11:07;;;;;;;5.87;2.70;;;;;;;24.04;100.00;101215.66;2056938;28;20214;-64
2022/08/04 00:12:11;;;;;;;8.63;3.33;;;;;;;23.67;100.00;101161.22;2065097;28;20193;-65
2022/08/04 00:13:12;;;;;;;3.90;3.00;;;;;;;24.17;100.00;101240.66;2056417;28;20573;-63
2022/08/04 00:14:15;;;;;;;4.93;2.73;;;;;;;24.17;100.00;101244.25;2056432;28;20179;-64
2022/08/04 00:15:17;;;;;;;5.00;2.93;;;;;;;24.13;100.00;101243.72;2062713;28;20249;-64
2022/08/04 00:16:18;;;;;;;4.47;2.53;;;;;;;23.78;100.00;101202.91;2058784;28;20201;-64
2022/08/04 00:17:22;;;;;;;5.03;2.83;;;;;;;24.03;100.00;101236.75;2060564;28;20193;-64
2022/08/04 00:18:30;;;;;;;5.10;2.63;;;;;;;23.89;100.00;101226.41;2064705;28;20194;-64
2022/08/04 00:19:42;;;;;;;4.90;2.70;;;;;;;24.04;100.00;101243.16;2061018;28;20673;-64
2022/08/04 00:20:44;;;;;;;4.57;2.70;;;;;;;24.07;100.00;101245.00;2051731;28;20541;-64
2022/08/04 00:21:58;;;;;;;5.47;2.77;;;;;;;24.05;100.00;101242.66;2055719;28;20221;-64
2022/08/04 00:23:01;;;;;;;4.80;2.80;;;;;;;24.01;100.00;101233.63;2060022;28;20572;-64
2022/08/04 00:24:01;;;;;;;4.90;2.70;;;;;;;24.10;100.00;101246.81;2061341;28;20218;-64
2022/08/04 00:25:03;;;;;;;6.50;2.73;;;;;;;24.12;100.00;101247.06;2057120;28;20175;-64
2022/08/04 00:26:04;;;;;;;3.10;2.60;;;;;;;24.08;100.00;101241.66;2063113;28;20561;-63
2022/08/04 00:27:06;;;;;;;5.97;2.70;;;;;;;24.02;100.00;101245.75;2056297;28;20285;-64
2022/08/04 00:28:07;;;;;;;5.00;2.60;;;;;;;23.54;100.00;101175.06;2056899;28;20175;-64
2022/08/04 00:29:08;;;;;;;4.83;2.80;;;;;;;23.88;100.00;101215.56;2056377;28;20562;-64
2022/08/04 00:30:09;;;;;;;4.67;2.97;;;;;;;24.10;100.00;101252.47;2062329;28;20676;-64
2022/08/04 00:31:10;;;;;;;6.30;2.60;;;;;;;24.14;100.00;101248.09;2064352;28;20646;-64
2022/08/04 00:32:11;;;;;;;3.97;2.80;;;;;;;23.96;100.00;101219.50;2060373;28;20227;-64
2022/08/04 00:33:18;;;;;;;4.40;2.90;;;;;;;24.16;100.00;101245.53;2055791;28;20183;-64
2022/08/04 00:34:18;;;;;;;8.23;2.70;;;;;;;23.95;100.00;101207.38;2058432;28;20654;-64
2022/08/04 00:35:19;;;;;;;4.67;2.87;;;;;;;24.20;100.00;101240.38;2063790;28;20625;-64
2022/08/04 00:36:21;;;;;;;4.90;2.60;;;;;;;24.20;100.00;101248.88;2055655;28;20179;-64
2022/08/04 00:37:22;;;;;;;3.53;2.70;;;;;;;24.24;100.00;101252.25;2055818;28;20176;-64
2022/08/04 00:38:24;;;;;;;3.97;2.63;;;;;;;23.87;100.00;101192.16;2064307;28;20629;-64
2022/08/04 00:39:25;;;;;;;5.43;2.83;;;;;;;24.22;100.00;101249.16;2064097;28;20248;-64
2022/08/04 00:40:55;;;;;;;3.57;2.47;;;;;;;24.23;100.00;101247.88;2058617;28;20265;-64
2022/08/04 00:42:11;;;;;;;5.23;2.93;;;;;;;24.26;100.00;101258.16;2051056;28;20199;-64
2022/08/04 00:43:18;;;;;;;6.80;2.87;;;;;;;24.28;100.00;101252.00;2055861;28;20170;-64
2022/08/04 00:44:40;;;;;;;4.70;2.87;;;;;;;24.26;100.00;101257.41;2056447;28;20167;-64
2022/08/04 00:46:10;;;;;;;5.73;2.80;;;;;;;24.29;100.00;101257.16;2060128;28;20190;-65
2022/08/04 00:47:36;;;;;;;4.77;2.47;;;;;;;24.29;100.00;101257.16;2063548;28;20718;-64
2022/08/04 00:48:37;;;;;;;7.63;2.67;;;;;;;24.29;100.00;101264.88;2046928;28;20206;-64
2022/08/04 00:49:59;;;;;;;4.27;2.40;;;;;;;24.24;100.00;101266.41;2061183;28;20182;-64
2022/08/04 00:51:11;;;;;;;6.33;2.47;;;;;;;24.26;100.00;101258.16;2048400;28;20196;-64
2022/08/04 00:52:30;;;;;;;4.70;2.60;;;;;;;24.27;100.00;101258.94;2056651;28;20198;-64
2022/08/04 00:54:00;;;;;;;6.00;2.80;;;;;;;24.23;100.00;101264.09;2056251;28;20171;-64
2022/08/04 00:55:15;;;;;;;3.27;2.67;;;;;;;24.17;100.00;101268.97;2027634;28;20712;-64
2022/08/04 00:56:53;;;;;;;4.90;2.53;;;;;;;24.18;100.00;101259.97;2063981;28;20198;-64
2022/08/04 00:58:29;;;;;;;4.87;2.67;;;;;;;24.13;100.00;101265.59;2056788;28;20201;-64
2022/08/04 00:59:35;;;;;;;4.27;2.60;;;;;;;24.14;100.00;101267.94;2056289;28;20318;-64
2022/08/04 01:01:02;;;;;;;3.43;2.40;;;;;;;24.13;100.00;101257.09;2047549;28;20282;-64
2022/08/04 01:02:11;;;;;;;4.43;2.80;;;;;;;24.22;100.00;101263.31;2055051;28;20190;-64
2022/08/04 01:03:23;;;;;;;6.47;2.70;;;;;;;24.27;100.00;101264.63;2061368;28;20311;-64
2022/08/04 01:05:03;;;;;;;3.70;2.50;;;;;;;24.22;100.00;101257.66;2061350;28;20190;-64
2022/08/04 01:06:26;;;;;;;5.70;2.73;;;;;;;24.30;100.00;101261.53;2047826;28;20191;-64
2022/08/04 01:07:55;;;;;;;5.13;2.30;;;;;;;24.29;100.00;101265.66;2057061;28;20159;-64
2022/08/04 01:08:58;;;;;;;4.00;2.60;;;;;;;24.29;100.00;101270.53;2057756;28;20191;-64
2022/08/04 01:10:08;;;;;;;5.00;3.00;;;;;;;24.28;100.00;101266.16;2057901;28;20269;-64
2022/08/04 01:11:50;;;;;;;3.77;2.80;;;;;;;24.28;100.00;101266.16;2057668;28;20187;-64
2022/08/04 01:13:08;;;;;;;3.43;2.40;;;;;;;24.29;100.00;101264.88;2057369;28;20206;-64
2022/08/04 01:14:18;;;;;;;6.53;2.67;;;;;;;24.26;100.00;101269.50;2058437;28;20770;-65
2022/08/04 01:15:30;;;;;;;3.90;2.60;;;;;;;24.26;100.00;101268.75;2057801;28;20622;-64
2022/08/04 01:16:41;;;;;;;4.57;3.07;;;;;;;23.78;100.00;101211.41;2058085;28;20167;-65
2022/08/04 01:18:00;;;;;;;5.00;2.73;;;;;;;24.12;100.00;101267.69;2057653;28;20264;-63
2022/08/04 01:19:06;;;;;;;3.80;2.87;;;;;;;24.15;100.00;101266.63;2064403;28;20162;-64
2022/08/04 01:20:14;;;;;;;5.47;2.90;;;;;;;24.10;100.00;101270.22;2058639;28;20655;-63
2022/08/04 01:21:30;;;;;;;6.30;2.93;;;;;;;24.11;100.00;101271.78;2065969;28;20622;-64
2022/08/04 01:22:30;;;;;;;3.23;2.90;;;;;;;24.11;100.00;101271.00;2056986;28;20179;-64
2022/08/04 01:23:36;;;;;;;5.40;3.20;;;;;;;24.15;100.00;101269.47;2056451;28;20183;-64
2022/08/04 01:24:46;;;;;;;5.00;3.27;;;;;;;24.17;100.00;101268.97;2057504;28;20661;-64
2022/08/04 01:26:23;;;;;;;4.57;3.00;;;;;;;24.20;100.00;101267.94;2065226;28;20182;-64
2022/08/04 01:27:49;;;;;;;5.67;3.00;;;;;;;24.19;100.00;101267.16;2052568;28;20762;-64
2022/08/04 01:28:58;;;;;;;8.87;2.97;;;;;;;24.20;100.00;101268.72;2054149;28;20618;-63
2022/08/04 01:29:59;;;;;;;5.50;2.87;;;;;;;24.23;100.00;101275.41;2055616;28;20202;-64
2022/08/04 01:31:16;;;;;;;5.97;3.20;;;;;;;23.69;100.00;101189.78;2043547;28;20196;-65
2022/08/04 01:32:16;;;;;;;5.07;2.70;;;;;;;24.24;100.00;101269.25;2051330;28;20661;-64
2022/08/04 01:33:18;;;;;;;4.70;3.13;;;;;;;23.61;100.00;101176.63;2062624;28;20651;-64
2022/08/04 01:34:21;;;;;;;5.07;2.83;;;;;;;24.31;100.00;101271.56;2065176;28;20197;-64
2022/08/04 01:35:27;;;;;;;4.23;2.70;;;;;;;24.31;100.00;101270.81;2056558;28;20628;-64
2022/08/04 01:36:32;;;;;;;5.57;2.90;;;;;;;24.34;100.00;101269.78;2057004;28;20230;-64
2022/08/04 01:38:03;;;;;;;5.63;2.60;;;;;;;24.27;100.00;101275.94;2057113;28;20273;-65
2022/08/04 01:39:39;;;;;;;4.30;2.80;;;;;;;24.01;100.00;101249.88;2057413;28;20187;-64
2022/08/04 01:40:28;;;;;;;3.50;2.60;;;;;;;24.25;100.00;101281.34;2057294;28;20361;-64
2022/08/04 01:41:30;;;;;;;6.50;3.00;;;;;;;24.22;100.00;101276.69;2057900;28;20183;-64
2022/08/04 01:42:32;;;;;;;5.73;2.73;;;;;;;23.89;100.00;101249.06;2057498;28;20195;-64
2022/08/04 01:43:36;;;;;;;4.93;2.60;;;;;;;24.17;100.00;101281.06;2056752;28;20205;-64
2022/08/04 01:44:39;;;;;;;7.50;3.13;;;;;;;24.11;100.00;101280.25;2056920;28;20533;-64
2022/08/04 01:45:40;;;;;;;4.97;2.77;;;;;;;24.05;100.00;101279.47;2057968;28;20219;-64
2022/08/04 01:46:41;;;;;;;5.17;2.70;;;;;;;23.74;100.00;101239.22;2057249;28;20179;-64
2022/08/04 01:47:49;;;;;;;4.00;2.50;;;;;;;24.07;100.00;101282.59;2057322;28;20187;-64
2022/08/04 01:48:53;;;;;;;5.17;2.80;;;;;;;24.05;100.00;101276.66;2057444;28;20187;-64
2022/08/04 01:49:59;;;;;;;3.60;2.50;;;;;;;24.07;100.00;101284.63;2064094;28;20199;-63
2022/08/04 01:51:06;;;;;;;5.50;2.67;;;;;;;23.77;100.00;101238.16;2057395;28;20262;-64
2022/08/04 01:52:08;;;;;;;5.10;2.63;;;;;;;23.95;100.00;101283.06;2057973;28;20199;-64
2022/08/04 01:53:08;;;;;;;3.73;2.63;;;;;;;23.86;100.00;101283.25;2056913;28;20595;-64
2022/08/04 01:54:13;;;;;;;6.43;2.93;;;;;;;23.48;100.00;101227.22;2056925;28;20297;-64
2022/08/04 01:55:16;;;;;;;7.43;2.77;;;;;;;23.40;100.00;101215.66;2056636;28;20250;-64
2022/08/04 01:56:20;;;;;;;4.53;2.73;;;;;;;23.59;100.00;101252.78;2054495;28;20327;-65
2022/08/04 01:57:24;;;;;;;6.87;3.33;;;;;;;23.82;100.00;101282.69;2051728;28;20204;-64
2022/08/04 01:58:28;;;;;;;6.47;2.40;;;;;;;23.44;100.00;101241.63;2057569;28;20187;-64
2022/08/04 01:59:30;;;;;;;4.97;2.70;;;;;;;23.78;100.00;101280.13;2060787;28;20194;-64
2022/08/04 02:00:31;;;;;;;5.27;2.77;;;;;;;23.69;100.00;101269.00;2062698;28;20210;-64
2022/08/04 02:01:35;;;;;;;5.03;2.63;;;;;;;23.72;100.00;101270.84;2057662;28;20207;-64
2022/08/04 02:02:35;;;;;;;4.33;2.70;;;;;;;23.55;100.00;101244.50;2056756;28;20175;-64
2022/08/04 02:03:42;;;;;;;3.00;2.70;;;;;;;23.72;100.00;101276.50;2056739;28;20243;-64
2022/08/04 02:04:43;;;;;;;3.67;2.40;;;;;;;23.39;100.00;101233.88;2065212;28;20222;-65
2022/08/04 02:05:49;;;;;;;4.50;2.73;;;;;;;23.63;100.00;101271.03;2049102;28;20442;-63
2022/08/04 02:07:25;;;;;;;5.83;2.70;;;;;;;23.61;100.00;101267.16;2049125;28;20204;-63
2022/08/04 02:08:52;;;;;;;4.80;2.53;;;;;;;23.56;100.00;101276.41;2040157;29;20431;-64
2022/08/04 02:10:06;;;;;;;7.23;2.77;;;;;;;23.55;100.00;101278.44;2040494;29;20456;-64
2022/08/04 02:11:15;;;;;;;7.23;2.93;;;;;;;23.50;100.00;101275.59;2054201;28;20539;-64
2022/08/04 02:12:31;;;;;;;3.93;2.80;;;;;;;23.43;100.00;101273.25;2061932;28;20432;-64
2022/08/04 02:13:59;;;;;;;3.30;2.33;;;;;;;23.36;100.00;101280.16;2059040;28;20460;-64
2022/08/04 02:15:38;;;;;;;3.87;2.40;;;;;;;23.29;100.00;101279.84;2062052;28;20520;-65
2022/08/04 02:16:51;;;;;;;3.23;2.30;;;;;;;23.34;100.00;101284.78;2040066;29;20559;-64
2022/08/04 02:18:23;;;;;;;3.80;2.80;;;;;;;23.32;100.00;101276.78;2043809;29;20451;-64
2022/08/04 02:19:34;;;;;;;6.30;2.83;;;;;;;23.07;100.00;101265.50;2055208;28;20458;-64
2022/08/04 02:20:38;;;;;;;4.80;2.53;;;;;;;23.27;100.00;101276.72;2057598;28;21041;-64
2022/08/04 02:21:40;;;;;;;4.20;2.60;;;;;;;23.27;100.00;101277.53;2062858;28;20457;-64
2022/08/04 02:22:56;;;;;;;4.20;2.47;;;;;;;23.28;100.00;101275.47;2059986;28;20807;-65
2022/08/04 02:24:08;;;;;;;5.00;2.53;;;;;;;23.15;100.00;101261.75;2057314;28;20465;-64
2022/08/04 02:25:11;;;;;;;5.87;2.60;;;;;;;23.24;100.00;101275.69;2056315;28;20549;-64
2022/08/04 02:26:15;;;;;;;3.03;2.37;;;;;;;;;;2057498;28;20453;-64
2022/08/04 02:27:21;;;;;;;4.70;2.80;;;;;;;23.09;100.00;101246.00;2061535;28;20905;-64
2022/08/04 02:28:32;;;;;;;3.27;2.30;;;;;;;22.56;100.00;101167.53;2060610;28;20503;-64
2022/08/04 02:30:00;;;;;;;3.83;2.60;;;;;;;23.29;100.00;101282.69;2057213;28;20210;-64
2022/08/04 02:31:36;;;;;;;4.10;2.80;;;;;;;23.25;100.00;101291.41;2051057;28;20254;-64
2022/08/04 02:32:41;;;;;;;4.30;2.83;;;;;;;23.27;100.00;101294.50;2057260;28;20164;-64
2022/08/04 02:33:44;;;;;;;3.63;2.60;;;;;;;23.31;100.00;101288.59;2057874;28;20206;-63
2022/08/04 02:35:02;;;;;;;4.33;2.83;;;;;;;23.27;100.00;101286.00;2063817;28;20179;-63
2022/08/04 02:36:04;;;;;;;3.63;2.43;;;;;;;22.93;100.00;101238.19;2057299;28;20229;-64
2022/08/04 02:37:08;;;;;;;3.20;2.50;;;;;;;23.26;100.00;101286.50;2057159;28;20179;-64
2022/08/04 02:38:26;;;;;;;4.27;2.67;;;;;;;23.23;100.00;101284.69;2064961;28;20253;-63
2022/08/04 02:39:32;;;;;;;5.30;2.80;;;;;;;23.25;100.00;101287.78;2056962;28;20171;-64
2022/08/04 02:40:33;;;;;;;4.73;3.07;;;;;;;23.22;100.00;101292.41;2057040;28;20164;-64
2022/08/04 02:41:35;;;;;;;4.40;2.70;;;;;;;23.22;100.00;101283.91;2057691;28;20198;-64
2022/08/04 02:42:36;;;;;;;5.13;2.60;;;;;;;22.81;100.00;101234.50;2048863;29;20439;-64
2022/08/04 02:43:41;;;;;;;4.10;2.70;;;;;;;23.21;100.00;101284.41;2055190;28;20453;-64
2022/08/04 02:44:44;;;;;;;3.83;2.80;;;;;;;23.24;100.00;101289.06;2057607;28;20493;-65
2022/08/04 02:45:46;;;;;;;4.60;2.70;;;;;;;22.92;100.00;101240.22;2062641;28;20445;-64
2022/08/04 02:46:51;;;;;;;4.60;2.47;;;;;;;23.14;100.00;101282.03;2059807;28;20461;-64
2022/08/04 02:47:54;;;;;;;3.93;2.60;;;;;;;23.12;100.00;101288.19;2057084;28;20446;-64
2022/08/04 02:48:56;;;;;;;7.60;3.10;;;;;;;23.08;100.00;101281.22;2060189;28;20446;-63
2022/08/04 02:49:57;;;;;;;4.87;2.67;;;;;;;22.78;100.00;101243.97;2065005;28;20414;-63
2022/08/04 02:50:59;;;;;;;3.67;2.70;;;;;;;22.90;100.00;101267.44;2063408;28;20421;-65
2022/08/04 02:52:01;;;;;;;5.67;2.63;;;;;;;23.00;100.00;101282.94;2057087;28;20414;-63
2022/08/04 02:53:03;;;;;;;5.63;2.77;;;;;;;23.03;100.00;101287.59;2057216;28;20418;-63
2022/08/04 02:54:05;;;;;;;5.93;3.03;;;;;;;22.67;100.00;101240.31;2056764;28;20446;-64
2022/08/04 02:55:10;;;;;;;8.03;3.50;;;;;;;23.12;100.00;101293.06;2062822;28;20500;-64
2022/08/04 02:56:14;;;;;;;4.70;2.87;;;;;;;23.17;100.00;101292.31;2058651;28;20886;-63
2022/08/04 02:57:17;;;;;;;6.30;2.80;;;;;;;23.21;100.00;101295.72;2062195;28;20457;-63
2022/08/04 02:58:19;;;;;;;4.90;2.77;;;;;;;23.24;100.00;101294.72;2065102;28;20683;-63
2022/08/04 02:59:25;;;;;;;6.27;2.77;;;;;;;23.04;100.00;101272.19;2060523;28;20203;-64
2022/08/04 03:00:25;;;;;;;4.90;2.60;;;;;;;23.17;100.00;101287.44;2060455;28;20197;-64
2022/08/04 03:01:26;;;;;;;4.27;2.93;;;;;;;22.66;100.00;101214.09;2065146;28;20239;-64
2022/08/04 03:02:52;;;;;;;3.83;2.77;;;;;;;23.10;100.00;101281.47;2064765;28;20670;-64
2022/08/04 03:04:05;;;;;;;3.93;2.70;;;;;;;23.02;100.00;101286.81;2031475;29;20229;-64
2022/08/04 03:05:38;;;;;;;4.27;2.60;;;;;;;22.95;100.00;101286.50;2055947;28;20209;-64
2022/08/04 03:07:09;;;;;;;5.67;2.77;;;;;;;22.86;100.00;101283.84;2056487;28;20689;-63
2022/08/04 03:08:12;;;;;;;3.90;2.93;;;;;;;22.79;100.00;101289.97;2057249;28;20921;-63
2022/08/04 03:09:41;;;;;;;5.47;2.70;;;;;;;22.40;100.00;101221.78;2056640;28;20182;-64
2022/08/04 03:10:59;;;;;;;4.80;2.80;;;;;;;23.00;100.00;101299.91;2056776;28;20202;-63
2022/08/04 03:12:31;;;;;;;5.13;3.03;;;;;;;23.02;100.00;101294.53;2056976;28;20198;-64
2022/08/04 03:13:53;;;;;;;5.10;2.77;;;;;;;22.74;100.00;101262.44;2063910;28;20804;-64
2022/08/04 03:14:56;;;;;;;5.60;3.17;;;;;;;23.05;100.00;101302.00;2055140;28;20673;-63
2022/08/04 03:16:32;;;;;;;4.23;2.70;;;;;;;23.05;100.00;101302.78;2057161;28;20422;-64
2022/08/04 03:17:54;;;;;;;5.10;3.00;;;;;;;23.05;100.00;101308.44;2048244;28;20277;-64
2022/08/04 03:19:22;;;;;;;6.70;3.10;;;;;;;22.50;100.00;101225.25;2061251;28;20204;-64
2022/08/04 03:20:28;;;;;;;4.30;2.70;;;;;;;23.06;100.00;101312.81;2057757;28;20664;-64
2022/08/04 03:21:51;;;;;;;8.17;3.20;;;;;;;23.02;100.00;101303.78;2057242;28;20175;-64
2022/08/04 03:23:39;;;;;;;4.80;2.87;;;;;;;23.04;100.00;101298.41;2057349;28;20174;-64
2022/08/04 03:25:06;;;;;;;8.80;4.00;;;;;;;22.98;100.00;101302.47;2034438;29;20789;-64
2022/08/04 03:26:25;;;;;;;4.87;3.23;;;;;;;23.01;100.00;101301.44;2025029;29;20193;-64
2022/08/04 03:27:34;;;;;;;6.43;3.03;;;;;;;23.03;100.00;101310.22;2050844;28;20619;-64
2022/08/04 03:28:49;;;;;;;6.07;2.73;;;;;;;23.04;100.00;101308.94;2057346;28;20159;-64
2022/08/04 03:29:56;;;;;;;5.57;3.13;;;;;;;23.05;100.00;101314.09;2056735;28;20253;-63
2022/08/04 03:31:15;;;;;;;3.57;2.80;;;;;;;23.03;100.00;101315.88;2057290;28;20175;-64
2022/08/04 03:32:34;;;;;;;6.73;3.20;;;;;;;23.04;100.00;101317.41;2056658;28;20189;-64
2022/08/04 03:34:12;;;;;;;6.00;3.13;;;;;;;23.01;100.00;101313.53;2058738;28;20171;-64
2022/08/04 03:35:38;;;;;;;10.60;3.47;;;;;;;22.99;100.00;101309.66;2049322;28;20639;-65
2022/08/04 03:36:56;;;;;;;11.17;4.10;;;;;;;23.00;100.00;101311.22;2057169;28;20187;-64
2022/08/04 03:38:18;;;;;;;9.67;3.67;;;;;;;22.97;100.00;101315.06;2057092;28;20550;-64
2022/08/04 03:39:33;;;;;;;12.87;3.70;;;;;;;22.95;100.00;101312.72;2062108;28;20255;-64
2022/08/04 03:40:46;;;;;;;8.23;3.80;;;;;;;22.90;100.00;101319.09;2056214;28;20720;-64
2022/08/04 03:41:58;;;;;;;8.90;3.97;;;;;;;22.89;100.00;101317.56;2051603;28;20255;-63
2022/08/04 03:43:08;;;;;;;10.03;3.97;;;;;;;22.83;100.00;101313.88;2057209;28;20199;-63
2022/08/04 03:44:15;;;;;;;7.33;3.83;;;;;;;22.85;100.00;101317.00;2051798;28;20211;-64
2022/08/04 03:45:24;;;;;;;10.50;4.30;;;;;;;22.29;100.00;101235.03;2051778;28;20203;-64
2022/08/04 03:46:40;;;;;;;13.33;3.40;;;;;;;22.42;100.00;101241.81;2060433;28;20193;-64
2022/08/04 03:48:15;;;;;;;8.60;3.40;;;;;;;22.86;100.00;101324.19;2061799;28;20186;-64
2022/08/04 03:49:58;;;;;;;4.53;2.70;;;;;;;22.88;100.00;101316.00;2065164;28;20170;-64
2022/08/04 03:53:13;;;;;;;3.83;2.70;;;;;;;22.76;100.00;101320.00;2064557;28;20271;-63
2022/08/04 03:54:40;;;;;;;4.07;2.70;;;;;;;22.39;100.00;101267.47;2064269;28;20186;-64
2022/08/04 03:55:43;;;;;;;4.20;2.70;;;;;;;22.78;100.00;101327.97;2064828;28;20233;-64
2022/08/04 03:57:21;;;;;;;4.93;2.60;;;;;;;22.78;100.00;101336.47;2060171;28;20214;-64
2022/08/04 03:58:44;;;;;;;6.73;3.17;;;;;;;22.26;100.00;101244.50;2064375;28;20197;-64
2022/08/04 04:00:02;;;;;;;5.03;3.10;;;;;;;22.82;100.00;101332.13;2063693;28;20163;-64
2022/08/04 04:01:35;;;;;;;4.47;2.87;;;;;;;22.85;100.00;101333.19;2058430;28;20159;-65
2022/08/04 04:02:54;;;;;;;8.07;3.10;;;;;;;22.84;100.00;101334.47;2059259;28;20281;-64
2022/08/04 04:04:03;;;;;;;4.73;2.90;;;;;;;22.85;100.00;101338.84;2062441;28;20293;-63
2022/08/04 04:05:32;;;;;;;4.93;3.17;;;;;;;22.55;100.00;101297.94;2057397;28;20194;-64
2022/08/04 04:06:54;;;;;;;7.07;3.30;;;;;;;22.83;100.00;101338.56;2057237;28;20434;-64
2022/08/04 04:08:15;;;;;;;6.43;3.27;;;;;;;22.82;100.00;101348.31;2047873;28;20729;-65
2022/08/04 04:09:36;;;;;;;7.27;3.10;;;;;;;22.83;100.00;101344.22;2034214;29;20320;-64
2022/08/04 04:10:58;;;;;;;7.40;3.17;;;;;;;22.83;100.00;101347.03;2056391;28;20190;-64
2022/08/04 04:12:13;;;;;;;5.90;3.23;;;;;;;22.84;100.00;101354.25;2063230;28;20208;-65
2022/08/04 04:13:29;;;;;;;5.27;3.07;;;;;;;22.84;100.00;101352.19;2055935;28;20190;-64
2022/08/04 04:14:55;;;;;;;10.13;3.90;;;;;;;22.86;100.00;101354.50;2064151;28;20176;-64
2022/08/04 04:15:59;;;;;;;5.97;3.43;;;;;;;22.76;100.00;101353.13;2056577;28;20552;-64
2022/08/04 04:17:36;;;;;;;7.47;3.43;;;;;;;22.69;100.00;101356.41;2056794;28;20191;-64
2022/08/04 04:18:55;;;;;;;7.40;3.47;;;;;;;22.75;100.00;101360.06;2064217;28;20194;-64
2022/08/04 04:20:34;;;;;;;9.93;3.80;;;;;;;22.66;100.00;101363.81;2058495;28;20249;-64
2022/08/04 04:22:17;;;;;;;4.80;3.43;;;;;;;22.62;100.00;101370.97;2056544;28;20476;-64
2022/08/04 04:23:30;;;;;;;4.73;3.17;;;;;;;22.56;100.00;101370.91;2063920;28;20439;-64
2022/08/04 04:25:00;;;;;;;5.97;3.20;;;;;;;22.54;100.00;101369.84;2061892;28;20874;-65
2022/08/04 04:26:12;;;;;;;7.17;3.37;;;;;;;22.59;100.00;101372.75;2064986;28;20174;-66
2022/08/04 04:27:22;;;;;;;6.43;3.00;;;;;;;22.62;100.00;101374.56;2064344;28;20603;-67
2022/08/04 04:28:34;;;;;;;4.77;3.27;;;;;;;22.66;100.00;101366.66;2062157;28;20537;-66
2022/08/04 04:30:00;;;;;;;7.57;3.60;;;;;;;22.74;100.00;101366.97;2068932;28;20170;-67
2022/08/04 04:31:28;;;;;;;5.43;3.17;;;;;;;22.80;100.00;101371.44;2061479;28;20195;-66
2022/08/04 04:33:07;;;;;;;9.03;3.33;;;;;;;22.85;100.00;101373.53;2063206;28;20189;-66
2022/08/04 04:34:23;;;;;;;5.10;3.30;;;;;;;22.89;100.00;101373.31;2060828;28;20186;-66
2022/08/04 04:35:52;;;;;;;6.37;3.20;;;;;;;22.79;100.00;101372.72;2057410;28;20181;-66
2022/08/04 04:37:11;;;;;;;5.43;2.80;;;;;;;22.84;100.00;101379.69;2056982;28;20301;-66
2022/08/04 04:38:29;;;;;;;3.77;2.60;;;;;;;22.86;100.00;101379.94;2059669;28;20198;-66
2022/08/04 04:39:34;;;;;;;4.47;3.17;;;;;;;22.90;100.00;101378.47;2066797;28;20199;-66
2022/08/04 04:40:50;;;;;;;6.80;3.40;;;;;;;22.98;100.00;101375.97;2067876;28;20282;-66
2022/08/04 04:42:23;;;;;;;4.27;2.97;;;;;;;23.01;100.00;101384.22;2065295;28;20634;-66
2022/08/04 04:44:02;;;;;;;5.17;3.03;;;;;;;22.99;100.00;101386.00;2065434;28;20241;-66
2022/08/04 04:45:14;;;;;;;5.80;3.47;;;;;;;22.98;100.00;101376.72;2056238;28;20235;-66
2022/08/04 04:46:36;;;;;;;4.73;2.70;;;;;;;23.08;100.00;101388.66;2062805;28;20193;-66
2022/08/04 04:47:53;;;;;;;6.37;3.30;;;;;;;22.84;100.00;101348.59;2065050;28;20193;-66
2022/08/04 04:49:11;;;;;;;8.10;3.50;;;;;;;23.11;100.00;101379.16;2063195;28;20171;-67
2022/08/04 04:50:27;;;;;;;13.67;3.40;;;;;;;23.19;100.00;101385.94;2049446;28;20186;-66
2022/08/04 04:51:36;;;;;;;6.47;3.33;;;;;;;22.80;100.00;101340.34;2055762;28;20181;-66
2022/08/04 04:52:48;;;;;;;6.27;3.00;;;;;;;23.24;100.00;101396.53;2066920;28;20304;-66
2022/08/04 04:54:18;;;;;;;7.27;2.90;;;;;;;23.29;100.00;101393.72;2067105;28;20271;-66
2022/08/04 04:55:20;;;;;;;5.93;3.50;;;;;;;23.36;100.00;101390.47;2059139;28;20638;-67
2022/08/04 04:56:54;;;;;;;8.30;2.97;;;;;;;23.36;100.00;101393.28;2058926;28;20441;-67
2022/08/04 04:57:58;;;;;;;8.90;3.43;;;;;;;23.10;100.00;101347.28;2065081;28;20190;-66
2022/08/04 04:59:01;;;;;;;7.80;3.40;;;;;;;23.46;100.00;101405.97;2063389;28;20645;-66
2022/08/04 05:00:11;;;;;;;6.70;3.80;;;;;;;23.49;100.00;101399.28;2062074;28;20198;-67
2022/08/04 05:01:39;;;;;;;6.73;3.50;;;;;;;23.57;100.00;101397.56;2064114;28;20667;-66
2022/08/04 05:02:58;;;;;;;4.77;3.60;;;;;;;23.57;100.00;101394.75;2066222;28;20265;-66
2022/08/04 05:04:10;;;;;;;4.93;3.00;;;;;;;23.61;100.00;101400.16;2059172;28;20206;-66
2022/08/04 05:05:32;;;;;;;5.37;3.30;;;;;;;23.61;100.00;101403.78;2060202;28;20182;-67
2022/08/04 05:07:21;;;;;;;4.10;3.17;;;;;;;23.02;100.00;101326.41;2068228;28;20247;-66
2022/08/04 05:08:42;;;;;;;6.07;2.97;;;;;;;23.54;100.00;101394.97;2041369;29;20207;-66
2022/08/04 05:10:10;;;;;;;8.00;3.10;;;;;;;23.51;100.00;101407.28;2045196;28;20185;-66
2022/08/04 05:11:53;;;;;;;7.53;3.30;;;;;;;23.56;100.00;101404.50;2052450;28;20328;-66
2022/08/04 05:13:13;;;;;;;5.13;3.40;;;;;;;23.53;100.00;101408.34;2051142;28;20292;-66
2022/08/04 05:14:36;;;;;;;7.20;3.10;;;;;;;23.59;100.00;101408.38;2058966;28;20249;-66
2022/08/04 05:15:41;;;;;;;6.50;3.40;;;;;;;23.65;100.00;101409.94;2066538;28;20612;-66
2022/08/04 05:16:53;;;;;;;5.23;3.40;;;;;;;23.68;100.00;101411.00;2064324;28;20688;-66
2022/08/04 05:17:56;;;;;;;6.90;3.30;;;;;;;23.50;100.00;101372.56;2064829;28;20265;-66
2022/08/04 05:19:02;;;;;;;11.53;3.80;;;;;;;23.60;100.00;101390.13;2066044;28;20182;-67
2022/08/04 05:20:19;;;;;;;13.17;3.27;;;;;;;23.92;100.00;101417.13;2066431;28;20182;-66
2022/08/04 05:21:40;;;;;;;9.27;3.70;;;;;;;23.93;100.00;101410.16;2060087;28;20254;-66
2022/08/04 05:23:25;;;;;;;5.60;3.27;;;;;;;24.04;100.00;101413.84;2061719;28;20450;-66
2022/08/04 05:24:28;;;;;;;7.77;2.97;;;;;;;23.91;100.00;101399.34;2029491;29;20733;-66
2022/08/04 05:25:43;;;;;;;5.07;3.10;;;;;;;23.85;100.00;101373.03;2040329;28;20500;-67
2022/08/04 05:26:49;;;;;;;4.17;3.17;;;;;;;23.85;100.00;101352.47;2049097;28;20445;-66
2022/08/04 05:28:02;;;;;;;5.57;3.33;;;;;;;24.23;100.00;101417.03;2047026;28;20203;-66
2022/08/04 05:29:08;;;;;;;5.00;3.00;;;;;;;24.27;100.00;101409.06;2045273;28;20243;-66
2022/08/04 05:30:10;;;;;;;7.43;3.50;;;;;;;23.88;100.00;101345.78;2058113;28;20571;-66
2022/08/04 05:31:36;;;;;;;6.37;3.33;;;;;;;24.33;100.00;101407.81;2067109;28;20190;-66
2022/08/04 05:32:45;;;;;;;7.47;3.43;;;;;;;24.34;100.00;101400.88;2067656;28;20173;-67
2022/08/04 05:33:51;;;;;;;5.30;3.63;;;;;;;24.31;100.00;101386.94;2065425;28;20194;-66
2022/08/04 05:35:03;;;;;;;6.27;3.33;;;;;;;24.42;100.00;101413.25;2069286;28;20836;-66
2022/08/04 05:36:09;;;;;;;6.13;3.10;;;;;;;24.51;100.00;101410.19;2063698;28;20313;-66
2022/08/04 05:37:17;;;;;;;6.50;3.30;;;;;;;24.56;100.00;101411.50;2066723;28;20185;-66
2022/08/04 05:38:22;;;;;;;5.77;3.43;;;;;;;24.61;100.00;101416.44;2067225;28;20221;-66
2022/08/04 05:39:36;;;;;;;5.77;3.10;;;;;;;24.65;100.00;101408.44;2067225;28;20225;-66
2022/08/04 05:40:38;;;;;;;4.07;2.70;;;;;;;24.75;100.00;101412.59;2069559;28;20181;-66